Time;durP1;ratioP1;P1;durP2;ratioP2;P2;SDS_P1;SDS_P2;PMS_P1;PMS_P2;Temp;Humidity;BMP_temperature;BMP_pressure;BME280_temperature;BME280_humidity;BME280_pressure;Samples;Min_cycle;Max_cycle;Signal;HPM_P1;HPM_P2
2022/03/14 00:01:38;;;;;;;2.33;2.10;;;11.60;99.90;;;;;;5072701;28;20062;-78
2022/03/14 00:04:04;;;;;;;2.25;2.05;;;11.60;99.90;;;;;;5072183;28;20021;-80
2022/03/14 00:06:29;;;;;;;2.30;2.10;;;11.60;99.90;;;;;;5072112;28;20056;-80
2022/03/14 00:08:55;;;;;;;2.78;2.50;;;11.60;99.90;;;;;;5072391;28;20055;-80
2022/03/14 00:11:22;;;;;;;2.80;2.60;;;11.50;99.90;;;;;;5071618;28;20040;-80
2022/03/14 00:13:48;;;;;;;3.17;2.88;;;11.50;99.90;;;;;;5072596;28;20020;-80
2022/03/14 00:16:22;;;;;;;2.25;2.05;;;11.50;99.90;;;;;;5072099;28;20043;-80
2022/03/14 00:18:50;;;;;;;2.60;2.40;;;11.40;99.90;;;;;;5072245;28;20029;-80
2022/03/14 00:21:21;;;;;;;4.28;2.33;;;11.40;99.90;;;;;;5072358;28;20028;-79
2022/03/14 00:23:47;;;;;;;2.13;1.98;;;11.40;99.90;;;;;;5072463;28;20075;-80
2022/03/14 00:26:12;;;;;;;2.85;2.60;;;11.40;99.90;;;;;;5071633;28;20020;-80
2022/03/14 00:28:38;;;;;;;2.58;2.38;;;11.40;99.90;;;;;;5082497;28;20020;-79
2022/03/14 00:31:04;;;;;;;3.38;2.75;;;11.30;99.90;;;;;;5091822;28;20064;-81
2022/03/14 00:33:29;;;;;;;3.10;2.80;;;11.30;99.90;;;;;;5081903;28;20025;-80
2022/03/14 00:35:58;;;;;;;2.40;2.20;;;11.30;99.90;;;;;;5072580;28;20546;-81
2022/03/14 00:38:25;;;;;;;2.40;2.20;;;11.30;99.90;;;;;;5087601;28;20021;-80
2022/03/14 00:40:51;;;;;;;2.60;2.40;;;11.20;99.90;;;;;;5079411;28;20086;-81
2022/03/14 00:43:17;;;;;;;2.53;2.33;;;11.30;99.90;;;;;;5072261;28;20028;-80
2022/03/14 00:45:43;;;;;;;2.67;2.47;;;11.20;99.90;;;;;;5071456;28;20721;-79
2022/03/14 00:48:08;;;;;;;6.10;2.53;;;11.20;99.90;;;;;;5083097;28;20447;-78
2022/03/14 00:50:34;;;;;;;2.50;2.30;;;11.30;99.90;;;;;;5079627;28;20033;-79
2022/03/14 00:52:59;;;;;;;3.47;3.20;;;11.20;99.90;;;;;;5085026;28;20016;-79
2022/03/14 00:55:25;;;;;;;4.60;2.60;;;11.20;99.90;;;;;;5081242;28;20072;-80
2022/03/14 00:57:50;;;;;;;2.60;2.40;;;11.20;99.90;;;;;;5072247;28;20454;-79
2022/03/14 01:00:16;;;;;;;2.95;2.75;;;11.20;99.90;;;;;;5071060;28;20043;-80
2022/03/14 01:02:42;;;;;;;2.75;2.55;;;11.10;99.90;;;;;;5072153;28;20035;-79
2022/03/14 01:05:07;;;;;;;2.55;2.35;;;11.10;99.90;;;;;;5071827;28;20031;-79
2022/03/14 01:07:34;;;;;;;3.30;3.00;;;11.10;99.90;;;;;;5071135;28;20136;-79
2022/03/14 01:10:00;;;;;;;2.92;2.65;;;11.10;99.90;;;;;;5073803;28;20183;-78
2022/03/14 01:12:26;;;;;;;3.20;2.90;;;11.00;99.90;;;;;;5075576;28;20376;-79
2022/03/14 01:14:52;;;;;;;2.95;2.67;;;11.00;99.90;;;;;;5075286;28;20036;-79
2022/03/14 01:17:17;;;;;;;3.17;2.88;;;11.00;99.90;;;;;;5075693;28;20025;-81
2022/03/14 01:19:43;;;;;;;2.97;2.78;;;11.10;99.90;;;;;;5075893;28;20024;-80
2022/03/14 01:22:10;;;;;;;3.13;2.75;;;11.00;99.90;;;;;;5075128;28;20024;-81
2022/03/14 01:24:38;;;;;;;3.05;2.55;;;11.00;99.90;;;;;;5076383;28;20033;-80
2022/03/14 01:27:05;;;;;;;3.03;2.80;;;11.00;99.90;;;;;;5076844;28;20376;-80
2022/03/14 01:29:31;;;;;;;3.10;2.72;;;11.00;99.90;;;;;;5075310;28;20911;-79
2022/03/14 01:31:58;;;;;;;2.78;2.58;;;11.00;99.90;;;;;;5075760;28;20032;-80
2022/03/14 01:34:24;;;;;;;2.80;2.60;;;10.90;99.90;;;;;;5074984;28;20036;-79
2022/03/14 01:36:50;;;;;;;2.92;2.72;;;10.90;99.90;;;;;;5075669;28;20048;-79
2022/03/14 01:39:15;;;;;;;3.65;2.83;;;10.80;99.90;;;;;;5075312;28;20553;-79
2022/03/14 01:41:41;;;;;;;3.42;3.13;;;10.90;99.90;;;;;;5075215;28;20054;-79
2022/03/14 01:44:07;;;;;;;3.63;2.90;;;10.80;99.90;;;;;;5075467;28;20384;-79
2022/03/14 01:46:32;;;;;;;2.85;2.63;;;10.80;99.90;;;;;;5075528;28;20374;-77
2022/03/14 01:48:59;;;;;;;3.28;2.90;;;10.80;99.90;;;;;;5074712;28;20036;-78
2022/03/14 01:51:25;;;;;;;3.05;2.78;;;10.80;99.90;;;;;;5075053;28;20028;-77
2022/03/14 01:53:52;;;;;;;3.95;3.17;;;10.80;99.90;;;;;;5075082;28;20052;-78
2022/03/14 01:56:18;;;;;;;3.20;2.90;;;10.80;99.90;;;;;;5074047;28;20395;-78
2022/03/14 01:58:45;;;;;;;3.30;3.00;;;10.80;99.90;;;;;;5075318;28;20095;-77
2022/03/14 02:01:11;;;;;;;3.55;3.25;;;10.90;99.90;;;;;;5074793;28;20024;-77
2022/03/14 02:03:37;;;;;;;3.42;3.13;;;10.80;99.90;;;;;;5074261;28;20457;-77
2022/03/14 02:06:03;;;;;;;3.38;3.08;;;10.90;99.90;;;;;;5074807;28;20052;-78
2022/03/14 02:08:28;;;;;;;3.65;3.35;;;10.90;99.90;;;;;;5074714;28;20094;-78
2022/03/14 02:10:54;;;;;;;3.05;2.75;;;11.00;99.90;;;;;;5073858;28;20468;-78
2022/03/14 02:13:19;;;;;;;3.40;3.08;;;11.10;99.90;;;;;;5074241;28;20025;-78
2022/03/14 02:15:46;;;;;;;3.20;2.92;;;11.10;99.90;;;;;;5074947;28;20020;-79
2022/03/14 02:18:11;;;;;;;2.85;2.65;;;11.10;99.90;;;;;;5073745;28;20020;-78
2022/03/14 02:20:37;;;;;;;2.88;2.67;;;11.10;99.90;;;;;;5073692;28;20479;-79
2022/03/14 02:23:03;;;;;;;3.63;3.03;;;11.20;99.90;;;;;;5074334;28;20028;-77
2022/03/14 02:25:28;;;;;;;3.58;3.28;;;11.20;99.90;;;;;;5073570;28;20025;-78
2022/03/14 02:28:00;;;;;;;3.53;3.22;;;11.20;99.90;;;;;;5074427;28;20016;-77
2022/03/14 02:30:26;;;;;;;3.55;3.25;;;11.20;99.90;;;;;;5074355;28;20040;-78
2022/03/14 02:32:51;;;;;;;4.15;3.25;;;11.20;99.90;;;;;;5073908;28;20487;-78
2022/03/14 02:35:17;;;;;;;3.67;3.38;;;11.20;99.90;;;;;;5074193;28;20066;-78
2022/03/14 02:37:44;;;;;;;3.00;2.80;;;11.10;99.90;;;;;;5073671;28;20031;-78
2022/03/14 02:40:10;;;;;;;3.92;3.60;;;11.10;99.90;;;;;;5080877;28;20028;-80
2022/03/14 02:42:36;;;;;;;4.25;3.83;;;11.10;99.90;;;;;;5087019;28;20028;-79
2022/03/14 02:45:02;;;;;;;4.88;4.03;;;11.10;99.90;;;;;;5073747;28;20025;-78
2022/03/14 02:47:28;;;;;;;5.53;4.18;;;11.00;99.90;;;;;;5074183;28;20025;-78
2022/03/14 02:49:53;;;;;;;3.97;3.67;;;11.00;99.90;;;;;;5078380;28;20023;-78
2022/03/14 02:52:19;;;;;;;3.65;3.35;;;10.90;99.90;;;;;;5086145;28;20012;-79
2022/03/14 02:54:44;;;;;;;3.55;3.25;;;10.90;99.90;;;;;;5079387;28;20021;-78
2022/03/14 02:57:10;;;;;;;5.47;4.97;;;10.80;99.90;;;;;;5090004;28;20472;-78
2022/03/14 02:59:35;;;;;;;4.25;3.88;;;10.80;99.90;;;;;;5074349;28;20024;-78
2022/03/14 03:02:01;;;;;;;3.92;3.63;;;10.80;99.90;;;;;;5074188;28;20486;-78
2022/03/14 03:04:27;;;;;;;4.22;3.92;;;10.80;99.90;;;;;;5073546;28;20119;-78
2022/03/14 03:06:55;;;;;;;4.68;4.28;;;10.80;99.90;;;;;;5072988;28;20045;-78
2022/03/14 03:09:21;;;;;;;4.70;4.30;;;10.80;99.90;;;;;;5073138;28;20032;-78
2022/03/14 03:11:47;;;;;;;6.47;4.22;;;10.70;99.90;;;;;;5073963;28;20029;-78
2022/03/14 03:14:13;;;;;;;5.00;4.45;;;10.70;99.90;;;;;;5072667;28;20464;-78
2022/03/14 03:16:39;;;;;;;5.15;4.63;;;10.70;99.90;;;;;;5073703;28;20028;-77
2022/03/14 03:19:06;;;;;;;5.88;5.28;;;10.70;99.90;;;;;;5073540;28;20392;-77
2022/03/14 03:21:39;;;;;;;5.47;5.07;;;10.70;99.90;;;;;;5073099;28;20029;-78
2022/03/14 03:24:07;;;;;;;5.10;4.70;;;10.80;99.90;;;;;;5079291;28;20024;-78
2022/03/14 03:26:34;;;;;;;6.30;5.20;;;10.80;99.90;;;;;;5094013;28;20028;-78
2022/03/14 03:29:00;;;;;;;6.40;5.80;;;10.80;99.90;;;;;;5092959;28;20118;-79
2022/03/14 03:31:28;;;;;;;8.57;6.63;;;10.80;99.90;;;;;;5093518;28;20107;-77
2022/03/14 03:33:54;;;;;;;7.03;6.43;;;10.80;99.90;;;;;;5092544;28;20024;-78
2022/03/14 03:36:19;;;;;;;7.40;6.80;;;10.70;99.90;;;;;;5093120;28;20039;-77
2022/03/14 03:38:45;;;;;;;8.10;7.30;;;10.80;99.90;;;;;;5093332;28;20030;-79
2022/03/14 03:41:10;;;;;;;8.48;7.78;;;10.70;99.90;;;;;;5092747;28;20043;-76
2022/03/14 03:43:36;;;;;;;7.85;7.25;;;10.60;99.90;;;;;;5093200;28;20028;-78
2022/03/14 03:46:03;;;;;;;8.85;8.05;;;10.60;99.90;;;;;;5093400;28;20025;-80
2022/03/14 03:48:29;;;;;;;8.43;7.68;;;10.50;99.90;;;;;;5092531;28;20055;-77
2022/03/14 03:50:54;;;;;;;8.98;8.18;;;10.50;99.90;;;;;;5093098;28;20059;-78
2022/03/14 03:53:20;;;;;;;10.35;8.70;;;10.50;99.90;;;;;;5093265;28;20071;-78
2022/03/14 03:55:46;;;;;;;10.10;8.93;;;10.50;99.90;;;;;;5092813;28;20472;-77
2022/03/14 03:58:11;;;;;;;9.65;8.75;;;10.50;99.90;;;;;;5093020;28;20030;-77
2022/03/14 04:00:40;;;;;;;9.32;8.52;;;10.40;99.90;;;;;;5093087;28;20023;-77
2022/03/14 04:03:08;;;;;;;10.52;9.63;;;10.40;99.90;;;;;;5092184;28;20027;-75
2022/03/14 04:05:40;;;;;;;10.75;9.80;;;10.30;99.90;;;;;;5092860;28;20482;-77
2022/03/14 04:08:11;;;;;;;9.80;8.90;;;10.20;99.90;;;;;;5092785;28;20028;-76
2022/03/14 04:10:38;;;;;;;10.75;9.85;;;10.10;99.90;;;;;;5092203;28;20065;-76
2022/03/14 04:13:06;;;;;;;10.60;9.70;;;10.10;99.90;;;;;;5092792;28;20051;-76
2022/03/14 04:15:40;;;;;;;11.05;10.05;;;10.10;99.90;;;;;;5092709;28;20028;-76
2022/03/14 04:18:07;;;;;;;9.75;8.95;;;10.10;99.90;;;;;;5091804;28;20103;-76
2022/03/14 04:20:32;;;;;;;11.32;10.23;;;10.10;99.90;;;;;;5092730;28;20032;-76
2022/03/14 04:22:58;;;;;;;11.45;10.25;;;10.10;99.90;;;;;;5092739;28;20027;-77
2022/03/14 04:25:24;;;;;;;10.77;9.70;;;10.10;99.90;;;;;;5091745;28;20024;-76
2022/03/14 04:27:49;;;;;;;11.27;10.23;;;10.10;99.90;;;;;;5092433;28;20032;-76
2022/03/14 04:30:18;;;;;;;12.98;10.65;;;10.00;99.90;;;;;;5091463;28;20036;-76
2022/03/14 04:32:44;;;;;;;11.25;10.15;;;10.00;99.90;;;;;;5092503;28;20107;-76
2022/03/14 04:35:10;;;;;;;10.88;9.88;;;10.00;99.90;;;;;;5092350;28;20039;-76
2022/03/14 04:37:36;;;;;;;10.93;9.82;;;10.00;99.90;;;;;;5091874;28;20069;-76
2022/03/14 04:40:03;;;;;;;12.10;10.80;;;10.00;99.90;;;;;;5092474;28;20024;-76
2022/03/14 04:42:28;;;;;;;11.65;10.52;;;10.00;99.90;;;;;;5094035;28;20016;-76
2022/03/14 04:44:57;;;;;;;12.43;11.13;;;10.00;99.90;;;;;;5098825;28;20051;-75
2022/03/14 04:47:22;;;;;;;13.63;12.20;;;10.00;99.90;;;;;;5092013;28;20055;-75
2022/03/14 04:49:48;;;;;;;13.18;11.77;;;10.00;99.90;;;;;;5092403;28;20481;-75
2022/03/14 04:52:14;;;;;;;13.60;11.77;;;10.00;99.90;;;;;;5090738;28;20029;-75
2022/03/14 04:54:40;;;;;;;14.43;11.48;;;10.00;99.90;;;;;;5098195;28;20031;-75
2022/03/14 04:57:06;;;;;;;16.98;12.45;;;9.90;99.90;;;;;;5095281;28;20028;-76
2022/03/14 04:59:31;;;;;;;18.85;12.60;;;9.90;99.90;;;;;;5106748;28;20031;-77
2022/03/14 05:01:57;;;;;;;14.75;11.70;;;9.90;99.90;;;;;;5091425;28;20044;-76
2022/03/14 05:04:22;;;;;;;13.88;12.38;;;10.00;99.90;;;;;;5091996;28;20035;-76
2022/03/14 05:06:48;;;;;;;15.23;11.07;;;9.90;99.90;;;;;;5091258;28;20044;-75
2022/03/14 05:09:14;;;;;;;11.38;10.25;;;9.90;99.90;;;;;;5091865;28;20059;-76
2022/03/14 05:11:40;;;;;;;15.98;11.38;;;9.80;99.90;;;;;;5092124;28;20016;-76
2022/03/14 05:14:08;;;;;;;12.07;10.00;;;9.80;99.90;;;;;;5091135;28;20032;-76
2022/03/14 05:16:34;;;;;;;11.40;10.00;;;9.80;99.90;;;;;;5091853;28;20024;-76
2022/03/14 05:18:59;;;;;;;18.98;10.30;;;9.80;99.90;;;;;;5092152;28;20028;-75
2022/03/14 05:21:25;;;;;;;18.05;10.93;;;9.80;99.90;;;;;;5090895;28;20099;-76
2022/03/14 05:23:50;;;;;;;11.98;10.23;;;9.70;99.90;;;;;;5092482;28;20030;-76
2022/03/14 05:26:16;;;;;;;16.88;11.23;;;9.60;99.90;;;;;;5091541;28;20504;-76
2022/03/14 05:28:41;;;;;;;11.05;10.02;;;9.70;99.90;;;;;;5091330;28;20063;-76
2022/03/14 05:31:07;;;;;;;11.88;10.70;;;9.50;99.90;;;;;;5091719;28;20071;-76
2022/03/14 05:33:32;;;;;;;12.30;10.30;;;9.50;99.90;;;;;;5091069;28;20111;-76
2022/03/14 05:35:58;;;;;;;12.90;10.60;;;9.50;99.90;;;;;;5091858;28;20495;-76
2022/03/14 05:38:24;;;;;;;13.60;10.10;;;9.40;99.90;;;;;;5091613;28;20459;-75
2022/03/14 05:40:51;;;;;;;16.67;10.10;;;9.50;99.90;;;;;;5091092;28;20475;-76
2022/03/14 05:43:17;;;;;;;10.80;9.80;;;9.40;99.90;;;;;;5091796;28;20032;-76
2022/03/14 05:45:43;;;;;;;10.25;8.73;;;9.40;99.90;;;;;;5091520;28;20023;-76
2022/03/14 05:48:08;;;;;;;10.35;9.23;;;9.40;99.90;;;;;;5090741;28;20051;-76
2022/03/14 05:50:34;;;;;;;10.93;9.38;;;9.40;99.90;;;;;;5091661;28;20479;-76
2022/03/14 05:53:01;;;;;;;10.63;9.63;;;9.30;99.90;;;;;;5091371;28;20464;-76
2022/03/14 05:55:27;;;;;;;13.85;10.07;;;9.30;99.90;;;;;;5091218;28;20036;-76
2022/03/14 05:57:52;;;;;;;14.30;11.48;;;9.30;99.90;;;;;;5095298;28;20365;-75
2022/03/14 06:00:22;;;;;;;12.98;11.57;;;9.30;99.90;;;;;;5094732;28;20028;-76
2022/03/14 06:02:48;;;;;;;14.10;11.23;;;9.40;99.90;;;;;;5094574;28;20070;-76
2022/03/14 06:05:15;;;;;;;13.32;11.15;;;9.30;99.90;;;;;;5094953;28;20047;-76
2022/03/14 06:07:41;;;;;;;14.32;12.73;;;9.30;99.90;;;;;;5095025;28;20043;-76
2022/03/14 06:10:08;;;;;;;16.30;13.05;;;9.40;99.90;;;;;;5093843;28;20491;-76
2022/03/14 06:12:33;;;;;;;17.10;13.02;;;9.30;99.90;;;;;;5094891;28;20028;-76
2022/03/14 06:15:00;;;;;;;16.02;13.23;;;9.30;99.90;;;;;;5095152;28;20353;-76
2022/03/14 06:17:26;;;;;;;15.27;12.75;;;9.30;99.90;;;;;;5094027;28;20086;-76
2022/03/14 06:19:52;;;;;;;18.67;14.45;;;9.30;99.90;;;;;;5094910;28;20028;-76
2022/03/14 06:22:19;;;;;;;15.23;12.85;;;9.30;99.90;;;;;;5094509;28;20384;-74
2022/03/14 06:24:47;;;;;;;16.75;13.48;;;9.30;99.90;;;;;;5075717;28;20029;-76
2022/03/14 06:27:16;;;;;;;18.48;13.55;;;9.20;99.90;;;;;;5075333;28;20377;-76
2022/03/14 06:29:43;;;;;;;15.38;13.73;;;9.30;99.90;;;;;;5072183;28;20071;-76
2022/03/14 06:32:09;;;;;;;17.00;13.98;;;9.30;99.90;;;;;;5072621;28;20032;-75
2022/03/14 06:34:35;;;;;;;13.88;12.38;;;9.30;99.90;;;;;;5072639;28;20029;-77
2022/03/14 06:37:01;;;;;;;15.63;13.68;;;9.40;99.90;;;;;;5074511;28;20120;-76
2022/03/14 06:39:26;;;;;;;20.50;14.45;;;9.30;99.90;;;;;;5072461;28;20039;-75
2022/03/14 06:41:53;;;;;;;18.27;14.40;;;9.30;99.90;;;;;;5074960;28;20032;-76
2022/03/14 06:44:19;;;;;;;16.90;13.68;;;9.40;99.90;;;;;;5071822;28;20530;-76
2022/03/14 06:46:44;;;;;;;15.93;14.18;;;9.40;99.90;;;;;;5079329;28;20040;-75
2022/03/14 06:49:13;;;;;;;18.05;13.07;;;9.40;99.90;;;;;;5078489;28;20089;-76
2022/03/14 06:51:42;;;;;;;18.92;12.82;;;9.40;99.90;;;;;;5071857;28;20031;-76
2022/03/14 06:54:09;;;;;;;15.80;14.07;;;9.40;99.90;;;;;;5075151;28;20039;-76
2022/03/14 06:56:37;;;;;;;21.60;14.52;;;9.30;99.90;;;;;;5076322;28;20094;-76
2022/03/14 06:59:02;;;;;;;15.90;13.70;;;9.40;99.90;;;;;;5076753;28;20472;-76
2022/03/14 07:01:30;;;;;;;17.30;14.07;;;9.40;99.90;;;;;;5085481;28;20036;-77
2022/03/14 07:03:56;;;;;;;20.67;14.27;;;9.50;99.90;;;;;;5080411;28;20032;-76
2022/03/14 07:06:22;;;;;;;18.38;14.75;;;9.50;99.90;;;;;;5070787;28;20052;-76
2022/03/14 07:08:48;;;;;;;19.92;14.65;;;9.60;99.90;;;;;;5071991;28;20074;-76
2022/03/14 07:11:13;;;;;;;16.88;14.98;;;9.50;99.90;;;;;;5071853;28;20057;-76
2022/03/14 07:13:39;;;;;;;15.80;14.05;;;9.50;99.90;;;;;;5071530;28;20044;-77
2022/03/14 07:16:05;;;;;;;20.08;14.15;;;9.60;99.90;;;;;;5075065;28;20464;-76
2022/03/14 07:18:30;;;;;;;16.05;14.35;;;9.60;99.90;;;;;;5071929;28;20066;-77
2022/03/14 07:20:57;;;;;;;17.80;14.35;;;9.60;99.90;;;;;;5074249;28;20040;-76
2022/03/14 07:23:23;;;;;;;16.98;13.90;;;9.70;99.90;;;;;;5071648;28;20143;-77
2022/03/14 07:25:50;;;;;;;18.60;14.50;;;9.70;99.90;;;;;;5075046;28;20027;-77
2022/03/14 07:28:16;;;;;;;17.23;14.13;;;9.80;99.90;;;;;;5071037;28;20134;-76
2022/03/14 07:30:41;;;;;;;15.25;13.68;;;9.80;99.90;;;;;;5071596;28;20082;-77
2022/03/14 07:33:07;;;;;;;18.17;14.65;;;9.80;99.90;;;;;;5071058;28;20021;-77
2022/03/14 07:35:35;;;;;;;19.02;14.63;;;9.80;99.90;;;;;;5070938;28;20086;-75
2022/03/14 07:38:01;;;;;;;16.65;13.48;;;9.90;99.90;;;;;;5074336;28;20024;-76
2022/03/14 07:40:27;;;;;;;16.75;13.93;;;9.90;99.90;;;;;;5071150;28;20035;-76
2022/03/14 07:42:55;;;;;;;19.35;13.63;;;10.00;99.90;;;;;;5071482;28;20035;-80
2022/03/14 07:45:21;;;;;;;15.80;13.30;;;10.10;99.90;;;;;;5071102;28;20024;-82
2022/03/14 07:47:47;;;;;;;17.08;13.00;;;10.10;99.90;;;;;;5070084;28;20024;-80
2022/03/14 07:50:15;;;;;;;13.75;12.35;;;10.20;99.90;;;;;;5070954;28;20036;-81
2022/03/14 07:52:42;;;;;;;14.25;12.85;;;10.30;99.90;;;;;;5073704;28;20031;-80
2022/03/14 07:55:09;;;;;;;15.57;12.43;;;10.30;99.90;;;;;;5071134;28;20044;-80
2022/03/14 07:57:38;;;;;;;14.98;11.07;;;10.40;99.90;;;;;;5076933;28;20071;-80
2022/03/14 08:00:08;;;;;;;15.32;11.70;;;10.40;99.90;;;;;;5071820;28;20031;-80
2022/03/14 08:02:33;;;;;;;13.93;11.18;;;10.40;99.90;;;;;;5071544;28;20029;-81
2022/03/14 08:04:59;;;;;;;16.10;11.55;;;10.50;99.90;;;;;;5072127;28;20028;-81
2022/03/14 08:07:26;;;;;;;18.67;12.48;;;10.40;99.90;;;;;;5072203;28;20079;-79
2022/03/14 08:09:52;;;;;;;19.65;10.60;;;10.40;99.90;;;;;;5071641;28;20416;-79
2022/03/14 08:12:17;;;;;;;14.57;11.23;;;10.40;99.90;;;;;;5071905;28;20037;-82
2022/03/14 08:14:44;;;;;;;15.63;11.70;;;10.30;99.90;;;;;;5072285;28;20109;-84
2022/03/14 08:17:10;;;;;;;20.73;12.05;;;10.30;99.90;;;;;;5073599;28;20040;-79
2022/03/14 08:19:35;;;;;;;15.60;12.73;;;10.30;99.90;;;;;;5072436;28;20032;-79
2022/03/14 08:22:02;;;;;;;18.50;12.15;;;10.40;99.90;;;;;;5072844;28;20123;-85
2022/03/14 08:24:28;;;;;;;21.85;11.93;;;10.30;99.90;;;;;;5082987;28;20032;-86
2022/03/14 08:26:54;;;;;;;17.88;12.70;;;10.40;99.90;;;;;;5087463;28;20031;-79
2022/03/14 08:29:20;;;;;;;17.00;12.20;;;10.40;99.90;;;;;;5070625;28;20036;-83
2022/03/14 08:31:45;;;;;;;31.52;15.13;;;10.40;99.90;;;;;;5072683;28;20158;-78
2022/03/14 08:34:11;;;;;;;26.67;15.52;;;10.40;99.90;;;;;;5071910;28;20028;-80
2022/03/14 08:36:40;;;;;;;17.35;12.73;;;10.40;99.90;;;;;;5070879;28;20088;-80
2022/03/14 08:39:09;;;;;;;18.17;12.00;;;10.40;99.90;;;;;;5072408;28;20078;-81
2022/03/14 08:41:36;;;;;;;18.52;13.20;;;10.40;99.90;;;;;;5072395;28;20028;-79
2022/03/14 08:44:07;;;;;;;20.65;14.73;;;10.40;99.90;;;;;;5071683;28;20033;-77
2022/03/14 08:46:34;;;;;;;19.85;13.40;;;10.30;99.90;;;;;;5072205;28;20032;-81
2022/03/14 08:49:00;;;;;;;17.40;11.98;;;10.30;99.90;;;;;;5074690;28;20040;-77
2022/03/14 08:51:26;;;;;;;19.95;14.73;;;10.30;99.90;;;;;;5089615;28;20027;-77
2022/03/14 08:53:52;;;;;;;22.52;14.18;;;10.30;99.90;;;;;;5107858;28;20034;-74
2022/03/14 08:56:18;;;;;;;18.58;12.48;;;10.30;99.90;;;;;;5110376;28;20028;-77
2022/03/14 08:58:43;;;;;;;19.83;12.07;;;10.30;99.90;;;;;;5110093;28;20068;-76
2022/03/14 09:01:11;;;;;;;20.10;13.07;;;10.20;99.90;;;;;;5109959;28;20020;-77
2022/03/14 09:03:36;;;;;;;18.77;12.38;;;10.30;99.90;;;;;;5110572;28;20020;-78
2022/03/14 09:06:02;;;;;;;17.92;13.85;;;10.20;99.90;;;;;;5109280;28;20394;-78
2022/03/14 09:08:28;;;;;;;17.48;12.50;;;10.30;99.90;;;;;;5092466;28;20024;-78
2022/03/14 09:10:55;;;;;;;19.00;12.85;;;10.30;99.90;;;;;;5101481;28;20046;-78
2022/03/14 09:13:21;;;;;;;16.48;12.15;;;10.40;99.90;;;;;;5109251;28;20441;-78
2022/03/14 09:15:48;;;;;;;17.92;13.68;;;10.40;99.90;;;;;;5097977;28;20024;-78
2022/03/14 09:18:14;;;;;;;20.88;14.23;;;10.40;99.90;;;;;;5101192;28;20027;-78
2022/03/14 09:20:41;;;;;;;18.50;13.35;;;10.50;99.90;;;;;;5088302;28;20544;-77
2022/03/14 09:23:07;;;;;;;20.92;12.98;;;10.50;99.90;;;;;;5076594;28;20027;-78
2022/03/14 09:25:33;;;;;;;17.27;12.40;;;10.60;99.90;;;;;;5068693;28;20032;-78
2022/03/14 09:27:58;;;;;;;14.38;12.07;;;10.70;99.90;;;;;;5071816;28;20078;-78
2022/03/14 09:30:25;;;;;;;16.38;12.15;;;10.70;99.90;;;;;;5082291;28;20064;-79
2022/03/14 09:32:51;;;;;;;14.73;11.77;;;10.80;99.90;;;;;;5076506;28;20328;-78
2022/03/14 09:35:18;;;;;;;20.05;12.23;;;10.90;99.90;;;;;;5073584;28;20032;-78
2022/03/14 09:37:45;;;;;;;15.85;11.77;;;10.90;99.90;;;;;;5074427;28;20068;-76
2022/03/14 09:40:14;;;;;;;23.33;11.82;;;10.90;99.90;;;;;;5074476;28;20040;-76
2022/03/14 09:42:42;;;;;;;17.42;12.13;;;10.90;99.90;;;;;;5075403;28;20440;-74
2022/03/14 09:45:09;;;;;;;24.85;13.07;;;11.00;99.90;;;;;;5074788;28;20029;-74
2022/03/14 09:47:37;;;;;;;20.67;12.70;;;11.00;99.90;;;;;;5074894;28;20120;-75
2022/03/14 09:50:07;;;;;;;14.48;10.98;;;11.00;99.90;;;;;;5075032;28;20037;-74
2022/03/14 09:52:35;;;;;;;26.40;11.50;;;11.00;99.90;;;;;;5075254;28;20020;-78
2022/03/14 09:55:00;;;;;;;25.88;14.25;;;11.00;99.90;;;;;;5074242;28;20060;-75
2022/03/14 09:57:27;;;;;;;18.27;13.27;;;11.00;99.90;;;;;;5076840;28;20551;-77
2022/03/14 09:59:54;;;;;;;22.60;13.80;;;11.00;99.90;;;;;;5095244;28;20031;-80
2022/03/14 10:02:20;;;;;;;23.27;14.63;;;11.00;99.90;;;;;;5075493;28;20020;-77
2022/03/14 10:04:46;;;;;;;18.58;12.75;;;11.10;99.90;;;;;;5076645;28;20032;-77
2022/03/14 10:07:11;;;;;;;17.73;12.68;;;11.10;99.90;;;;;;5073425;28;20408;-75
2022/03/14 10:09:37;;;;;;;14.82;12.20;;;11.10;99.90;;;;;;5074035;28;20033;-78
2022/03/14 10:12:04;;;;;;;19.75;12.18;;;11.30;99.90;;;;;;5091407;28;20012;-74
2022/03/14 10:14:31;;;;;;;15.57;11.20;;;11.40;99.90;;;;;;5091982;28;21528;-75
2022/03/14 10:16:57;;;;;;;15.13;11.07;;;11.50;99.90;;;;;;5106181;28;20046;-76
2022/03/14 10:19:36;;;;;;;19.00;11.52;;;11.50;99.90;;;;;;5112722;28;20020;-76
2022/03/14 10:22:15;;;;;;;22.77;12.27;;;11.50;99.90;;;;;;5100172;28;20035;-75
2022/03/14 10:24:43;;;;;;;14.18;9.80;;;11.50;99.90;;;;;;5112849;28;20047;-75
2022/03/14 10:27:10;;;;;;;22.98;11.35;;;11.50;99.90;;;;;;5112714;28;20034;-76
2022/03/14 10:29:37;;;;;;;17.38;10.75;;;11.50;99.90;;;;;;5112701;28;20122;-76
2022/03/14 10:32:23;;;;;;;26.42;12.00;;;11.50;99.90;;;;;;5113131;28;20150;-76
2022/03/14 10:34:52;;;;;;;22.38;11.57;;;11.60;99.90;;;;;;5113064;28;20028;-75
2022/03/14 10:37:22;;;;;;;15.82;11.27;;;11.60;99.90;;;;;;5112178;28;20360;-76
2022/03/14 10:40:01;;;;;;;14.50;10.40;;;11.70;99.90;;;;;;5097767;28;20032;-76
2022/03/14 10:42:27;;;;;;;18.98;10.82;;;11.70;99.90;;;;;;5085920;28;20269;-76
2022/03/14 10:44:54;;;;;;;15.35;8.98;;;11.70;99.90;;;;;;5090326;28;20111;-76
2022/03/14 10:47:25;;;;;;;17.98;10.55;;;11.80;99.90;;;;;;5086121;28;20028;-76
2022/03/14 10:49:50;;;;;;;14.90;9.95;;;11.80;99.90;;;;;;5088596;28;20036;-75
2022/03/14 10:52:18;;;;;;;21.00;12.35;;;11.90;99.90;;;;;;5088727;28;20035;-75
2022/03/14 10:54:45;;;;;;;16.05;11.02;;;12.00;99.90;;;;;;5092020;28;20028;-74
2022/03/14 10:57:17;;;;;;;20.90;10.82;;;12.00;99.90;;;;;;5085482;28;20032;-75
2022/03/14 10:59:44;;;;;;;14.85;10.75;;;12.10;99.90;;;;;;5086694;28;20031;-75
2022/03/14 11:02:23;;;;;;;20.60;10.07;;;12.10;99.90;;;;;;5089656;28;20024;-75
2022/03/14 11:04:53;;;;;;;12.40;9.40;;;12.20;99.90;;;;;;5085921;28;20056;-76
2022/03/14 11:07:26;;;;;;;15.43;10.60;;;12.10;99.90;;;;;;5085416;28;20040;-76
2022/03/14 11:09:58;;;;;;;14.50;10.70;;;12.10;99.90;;;;;;5088608;28;20107;-76
2022/03/14 11:12:28;;;;;;;21.35;11.18;;;12.10;99.90;;;;;;5084930;28;20465;-75
2022/03/14 11:15:06;;;;;;;15.60;11.68;;;12.10;99.90;;;;;;5083314;28;20025;-75
2022/03/14 11:17:34;;;;;;;25.40;11.93;;;12.10;99.90;;;;;;5088969;28;20035;-76
2022/03/14 11:20:00;;;;;;;26.35;12.73;;;12.10;99.90;;;;;;5086842;28;20078;-75
2022/03/14 11:22:28;;;;;;;27.17;13.65;;;12.10;99.90;;;;;;5085557;28;20039;-76
2022/03/14 11:24:56;;;;;;;20.55;12.30;;;12.20;99.90;;;;;;5081098;28;20039;-76
2022/03/14 11:27:23;;;;;;;27.20;14.13;;;12.10;99.90;;;;;;5088981;28;20024;-76
2022/03/14 11:29:50;;;;;;;22.90;12.35;;;12.10;99.90;;;;;;5089148;28;20019;-76
2022/03/14 11:32:17;;;;;;;24.55;14.55;;;12.10;99.90;;;;;;5111321;28;20493;-75
2022/03/14 11:34:45;;;;;;;31.92;13.95;;;12.10;99.90;;;;;;5115002;28;20029;-74
2022/03/14 11:37:11;;;;;;;24.23;13.77;;;12.20;99.90;;;;;;5111457;28;20057;-75
2022/03/14 11:39:37;;;;;;;29.05;13.70;;;12.30;99.90;;;;;;5111752;28;20054;-75
2022/03/14 11:42:04;;;;;;;17.83;10.57;;;12.40;99.90;;;;;;5111301;28;20027;-76
2022/03/14 11:44:30;;;;;;;27.63;13.60;;;12.50;99.90;;;;;;5111657;28;20024;-75
2022/03/14 11:46:57;;;;;;;22.98;10.32;;;12.60;99.90;;;;;;5111039;28;20544;-75
2022/03/14 11:49:26;;;;;;;30.95;13.50;;;12.70;99.90;;;;;;5111164;28;20509;-76
2022/03/14 11:52:10;;;;;;;19.90;10.52;;;12.70;99.90;;;;;;5110787;28;20082;-76
2022/03/14 11:54:39;;;;;;;16.10;9.80;;;12.80;99.90;;;;;;5094458;28;20024;-77
2022/03/14 11:57:05;;;;;;;17.90;9.95;;;12.90;99.90;;;;;;5104353;28;20021;-76
2022/03/14 11:59:33;;;;;;;22.00;9.82;;;13.00;99.90;;;;;;5083700;28;20108;-78
2022/03/14 12:02:00;;;;;;;17.23;7.95;;;13.20;99.90;;;;;;5098247;28;20028;-76
2022/03/14 12:04:39;;;;;;;13.82;9.13;;;13.20;99.90;;;;;;5080964;28;20825;-75
2022/03/14 12:07:06;;;;;;;12.90;8.80;;;13.20;99.90;;;;;;5089082;28;20068;-76
2022/03/14 12:09:33;;;;;;;17.15;8.35;;;13.40;99.90;;;;;;5080139;28;20068;-76
2022/03/14 12:12:21;;;;;;;17.80;9.98;;;13.60;99.90;;;;;;5111470;28;20042;-75
2022/03/14 12:14:53;;;;;;;15.63;9.55;;;13.80;99.90;;;;;;5110347;28;20016;-77
2022/03/14 12:17:18;;;;;;;19.33;9.45;;;13.90;99.90;;;;;;5110789;28;20035;-76
2022/03/14 12:19:51;;;;;;;19.27;9.88;;;13.90;99.90;;;;;;5111547;28;20536;-76
2022/03/14 12:22:29;;;;;;;15.35;9.80;;;13.90;99.90;;;;;;5110223;28;20386;-76
2022/03/14 12:24:56;;;;;;;29.95;13.27;;;13.80;99.90;;;;;;5109232;28;20102;-76
2022/03/14 12:27:29;;;;;;;35.42;14.15;;;13.70;99.90;;;;;;5100737;28;20036;-76
2022/03/14 12:29:57;;;;;;;28.23;12.35;;;13.70;99.90;;;;;;5111050;28;20027;-76
2022/03/14 12:32:28;;;;;;;22.98;10.35;;;13.70;99.90;;;;;;5111242;28;20030;-76
2022/03/14 12:35:26;;;;;;;23.50;12.95;;;13.60;99.90;;;;;;5110940;28;20514;-76